Time;durP1;ratioP1;P1;durP2;ratioP2;P2;SDS_P1;SDS_P2;PMS_P1;PMS_P2;Temp;Humidity;BMP_temperature;BMP_pressure;BME280_temperature;BME280_humidity;BME280_pressure;Samples;Min_cycle;Max_cycle;Signal;HPM_P1;HPM_P2
2022/04/15 00:00:25;;;;;;;2.10;2.00;;;;;;;;;;4976210;28;20198;-87
2022/04/15 00:02:53;;;;;;;1.33;1.33;;;;;;;;;;4948786;29;20197;-87
2022/04/15 00:05:36;;;;;;;2.97;2.77;;;;;;;;;;4948026;29;20213;-87
2022/04/15 00:08:04;;;;;;;5.07;4.53;;;;;;;;;;4963982;29;20217;-87
2022/04/15 00:10:33;;;;;;;1.43;1.43;;;;;;;;;;4948038;29;20209;-87
2022/04/15 00:13:03;;;;;;;3.67;3.27;;;;;;;;;;4947656;29;20225;-87
2022/04/15 00:15:34;;;;;;;11.60;6.70;;;;;;;;;;4947865;29;20210;-87
2022/04/15 00:18:03;;;;;;;6.20;5.40;;;;;;;;;;4963577;29;20201;-87
2022/04/15 00:20:32;;;;;;;3.57;3.27;;;;;;;;;;4948261;29;20232;-87
2022/04/15 00:23:01;;;;;;;5.53;4.07;;;;;;;;;;4948129;29;20206;-87
2022/04/15 00:25:30;;;;;;;11.60;7.50;;;;;;;;;;4947960;29;20201;-86
2022/04/15 00:27:58;;;;;;;9.27;6.37;;;;;;;;;;4948425;29;20228;-86
2022/04/15 00:30:27;;;;;;;9.73;7.43;;;;;;;;;;4948530;29;20252;-86
2022/04/15 00:32:57;;;;;;;4.67;3.93;;;;;;;;;;4948156;29;20211;-87
2022/04/15 00:35:25;;;;;;;2.40;2.20;;;;;;;;;;4948291;29;20209;-87
2022/04/15 00:37:54;;;;;;;3.40;2.57;;;;;;;;;;4949230;29;20217;-87
2022/04/15 00:40:22;;;;;;;4.33;3.57;;;;;;;;;;4948689;29;20209;-87
2022/04/15 00:42:50;;;;;;;0.80;0.80;;;;;;;;;;4948851;29;20205;-87
2022/04/15 00:45:19;;;;;;;2.00;1.80;;;;;;;;;;4948945;29;20202;-87
2022/04/15 00:47:49;;;;;;;5.20;3.50;;;;;;;;;;4947735;29;20206;-86
2022/04/15 00:50:19;;;;;;;3.87;3.57;;;;;;;;;;4949004;29;20202;-87
2022/04/15 00:52:48;;;;;;;3.87;3.07;;;;;;;;;;4966191;29;20214;-88
2022/04/15 00:55:18;;;;;;;3.80;3.47;;;;;;;;;;4949234;29;20213;-86
2022/04/15 00:57:50;;;;;;;1.20;1.17;;;;;;;;;;4948747;29;20202;-87
2022/04/15 01:00:20;;;;;;;2.97;2.50;;;;;;;;;;4955336;28;20219;-87
2022/04/15 01:02:48;;;;;;;2.13;2.03;;;;;;;;;;4967951;28;20213;-87
2022/04/15 01:05:19;;;;;;;2.70;2.50;;;;;;;;;;4967807;28;20228;-87
2022/04/15 01:07:49;;;;;;;0.87;0.87;;;;;;;;;;4984261;28;20189;-87
2022/04/15 01:10:18;;;;;;;0.70;0.70;;;;;;;;;;4967926;28;20248;-87
2022/04/15 01:12:48;;;;;;;2.53;1.70;;;;;;;;;;4967938;28;20233;-87
2022/04/15 01:15:36;;;;;;;2.50;1.83;;;;;;;;;;4968157;28;20221;-88
2022/04/15 01:18:05;;;;;;;3.60;1.67;;;;;;;;;;4967748;28;20216;-87
2022/04/15 01:20:35;;;;;;;1.77;1.67;;;;;;;;;;4967757;28;20211;-87
2022/04/15 01:23:07;;;;;;;1.63;1.53;;;;;;;;;;4964727;28;20236;-87
2022/04/15 01:25:36;;;;;;;2.27;1.63;;;;;;;;;;4973971;28;20206;-88
2022/04/15 01:28:05;;;;;;;1.63;1.63;;;;;;;;;;4975784;28;20204;-87
2022/04/15 01:30:34;;;;;;;1.23;1.23;;;;;;;;;;4985650;28;20240;-87
2022/04/15 01:33:03;;;;;;;0.60;0.60;;;;;;;;;;4969107;28;20202;-87
2022/04/15 01:35:34;;;;;;;0.60;0.60;;;;;;;;;;4948617;29;20273;-87
2022/04/15 01:38:04;;;;;;;1.80;1.33;;;;;;;;;;4948971;29;20202;-87
2022/04/15 01:40:34;;;;;;;1.70;1.60;;;;;;;;;;4966134;28;20229;-87
2022/04/15 01:43:03;;;;;;;3.37;3.17;;;;;;;;;;4948500;29;20213;-86
2022/04/15 01:45:32;;;;;;;1.17;1.17;;;;;;;;;;4966044;29;20201;-87
2022/04/15 01:48:00;;;;;;;2.23;2.13;;;;;;;;;;4949503;29;20275;-87
2022/04/15 01:50:29;;;;;;;4.37;2.33;;;;;;;;;;4965675;29;20222;-87
2022/04/15 01:52:58;;;;;;;2.37;1.97;;;;;;;;;;4966782;29;20205;-87
2022/04/15 01:55:27;;;;;;;4.67;3.27;;;;;;;;;;4950088;29;20210;-87
2022/04/15 01:57:57;;;;;;;1.77;1.67;;;;;;;;;;4955294;29;20222;-87
2022/04/15 02:00:26;;;;;;;4.03;2.27;;;;;;;;;;4965791;29;20194;-87
2022/04/15 02:02:55;;;;;;;1.00;1.00;;;;;;;;;;4964923;29;20206;-87
2022/04/15 02:05:26;;;;;;;1.83;1.70;;;;;;;;;;4964719;29;20232;-87
2022/04/15 02:07:54;;;;;;;2.70;2.50;;;;;;;;;;4966646;29;20229;-87
2022/04/15 02:10:23;;;;;;;4.23;3.83;;;;;;;;;;4965304;29;20218;-87
2022/04/15 02:12:51;;;;;;;6.07;4.43;;;;;;;;;;4965692;29;20229;-87
2022/04/15 02:15:21;;;;;;;3.43;2.33;;;;;;;;;;4965831;29;20202;-87
2022/04/15 02:17:50;;;;;;;0.60;0.60;;;;;;;;;;4966781;29;20228;-86
2022/04/15 02:20:18;;;;;;;0.90;0.90;;;;;;;;;;4968395;28;20197;-87
2022/04/15 02:22:47;;;;;;;3.27;2.47;;;;;;;;;;4969360;29;20231;-87
2022/04/15 02:25:15;;;;;;;4.47;3.70;;;;;;;;;;4969123;29;20208;-87
2022/04/15 02:27:44;;;;;;;8.70;2.63;;;;;;;;;;4969477;29;20209;-88
2022/04/15 02:30:15;;;;;;;1.23;1.23;;;;;;;;;;4968190;29;20242;-88
2022/04/15 02:32:45;;;;;;;1.00;1.00;;;;;;;;;;4972502;28;20235;-88
2022/04/15 02:35:13;;;;;;;0.77;0.77;;;;;;;;;;4972073;28;20268;-89
2022/04/15 02:37:42;;;;;;;4.80;2.13;;;;;;;;;;4971613;28;20229;-88
2022/04/15 02:40:11;;;;;;;3.43;3.13;;;;;;;;;;4971315;28;20203;-88
2022/04/15 02:42:39;;;;;;;1.10;1.10;;;;;;;;;;4971310;28;20209;-88
2022/04/15 02:45:08;;;;;;;3.83;2.27;;;;;;;;;;4989222;28;20288;-88
2022/04/15 02:47:37;;;;;;;0.63;0.63;;;;;;;;;;4972272;28;20204;-88
2022/04/15 02:50:08;;;;;;;3.67;3.33;;;;;;;;;;4971882;28;20225;-88
2022/04/15 02:52:36;;;;;;;0.90;0.90;;;;;;;;;;4971587;28;20304;-88
2022/04/15 02:55:05;;;;;;;1.60;1.60;;;;;;;;;;4988484;28;20216;-88
2022/04/15 02:57:34;;;;;;;5.47;4.57;;;;;;;;;;4988954;28;20211;-89
2022/04/15 03:00:02;;;;;;;4.60;4.10;;;;;;;;;;4971641;28;20208;-88
2022/04/15 03:02:32;;;;;;;1.63;1.53;;;;;;;;;;4971290;28;20224;-88
2022/04/15 03:05:01;;;;;;;3.83;3.63;;;;;;;;;;4988768;28;20197;-89
2022/04/15 03:07:31;;;;;;;1.57;1.47;;;;;;;;;;4971910;28;20201;-89
2022/04/15 03:09:59;;;;;;;1.60;1.50;;;;;;;;;;4971313;28;20317;-86
2022/04/15 03:12:28;;;;;;;2.77;2.53;;;;;;;;;;4971082;28;20272;-87
2022/04/15 03:14:57;;;;;;;3.07;2.10;;;;;;;;;;4988519;28;20201;-87
2022/04/15 03:17:25;;;;;;;1.57;1.47;;;;;;;;;;4988821;28;20211;-86
2022/04/15 03:19:54;;;;;;;2.53;1.73;;;;;;;;;;4971450;28;20202;-87
2022/04/15 03:22:22;;;;;;;2.73;2.53;;;;;;;;;;4988218;28;20260;-87
2022/04/15 03:24:53;;;;;;;1.23;1.23;;;;;;;;;;4970863;28;20276;-87
2022/04/15 03:27:21;;;;;;;2.77;1.73;;;;;;;;;;4971029;28;20277;-87
2022/04/15 03:29:50;;;;;;;1.70;1.43;;;;;;;;;;4970526;28;20243;-87
2022/04/15 03:32:18;;;;;;;5.20;4.63;;;;;;;;;;4960208;29;20198;-87
2022/04/15 03:34:47;;;;;;;5.17;4.60;;;;;;;;;;4951119;29;20237;-86
2022/04/15 03:37:15;;;;;;;0.90;0.90;;;;;;;;;;4951153;29;20281;-87
2022/04/15 03:39:44;;;;;;;4.20;1.93;;;;;;;;;;4968293;28;20193;-87
2022/04/15 03:42:14;;;;;;;3.70;2.40;;;;;;;;;;4967354;28;20229;-86
2022/04/15 03:44:42;;;;;;;2.60;2.27;;;;;;;;;;4952590;29;20213;-87
2022/04/15 03:47:11;;;;;;;1.20;1.20;;;;;;;;;;4968778;28;20218;-87
2022/04/15 03:49:39;;;;;;;1.13;1.13;;;;;;;;;;4967650;28;20264;-87
2022/04/15 03:52:08;;;;;;;1.00;1.00;;;;;;;;;;4968466;28;20206;-88
2022/04/15 03:54:36;;;;;;;2.40;2.30;;;;;;;;;;4951625;29;20206;-87
2022/04/15 03:57:05;;;;;;;1.30;1.20;;;;;;;;;;4968425;28;20271;-87
2022/04/15 03:59:35;;;;;;;2.47;2.37;;;;;;;;;;4953583;29;20221;-87
2022/04/15 04:02:04;;;;;;;0.60;0.60;;;;;;;;;;4952541;29;20221;-87
2022/04/15 04:04:33;;;;;;;2.77;2.57;;;;;;;;;;4953164;29;20209;-87
2022/04/15 04:07:02;;;;;;;1.27;1.27;;;;;;;;;;4950924;29;20225;-87
2022/04/15 04:09:32;;;;;;;0.70;0.70;;;;;;;;;;4967664;28;20198;-87
2022/04/15 04:12:01;;;;;;;1.37;1.37;;;;;;;;;;4951511;29;20226;-87
2022/04/15 04:14:29;;;;;;;1.03;1.03;;;;;;;;;;4967895;28;20210;-87
2022/04/15 04:17:00;;;;;;;1.20;1.10;;;;;;;;;;4969046;28;20269;-87
2022/04/15 04:19:28;;;;;;;1.23;1.23;;;;;;;;;;4952637;29;20209;-86
2022/04/15 04:21:57;;;;;;;2.30;1.80;;;;;;;;;;4968544;28;20198;-87
2022/04/15 04:24:25;;;;;;;1.53;1.53;;;;;;;;;;4952241;29;20202;-88
2022/04/15 04:26:54;;;;;;;0.80;0.80;;;;;;;;;;4967639;28;20216;-87
2022/04/15 04:29:22;;;;;;;2.50;2.30;;;;;;;;;;4963727;28;20245;-87
2022/04/15 04:31:51;;;;;;;2.00;1.90;;;;;;;;;;4971147;28;20217;-87
2022/04/15 04:34:21;;;;;;;2.40;2.20;;;;;;;;;;4966427;28;20201;-87
2022/04/15 04:36:49;;;;;;;0.90;0.90;;;;;;;;;;4965937;28;20212;-87
2022/04/15 04:39:18;;;;;;;1.20;1.10;;;;;;;;;;4965973;28;20207;-86
2022/04/15 04:41:46;;;;;;;2.60;2.50;;;;;;;;;;4965530;28;20204;-87
2022/04/15 04:44:14;;;;;;;0.70;0.70;;;;;;;;;;4966093;28;20229;-87
2022/04/15 04:46:43;;;;;;;0.70;0.70;;;;;;;;;;4983020;28;20205;-87
2022/04/15 04:49:12;;;;;;;1.07;1.07;;;;;;;;;;4966352;28;20201;-88
2022/04/15 04:51:41;;;;;;;1.10;1.10;;;;;;;;;;4966602;28;20251;-88
2022/04/15 04:54:11;;;;;;;0.90;0.90;;;;;;;;;;4965694;28;20205;-87
2022/04/15 04:56:39;;;;;;;28.20;3.10;;;;;;;;;;4965973;28;20216;-87
2022/04/15 04:59:08;;;;;;;0.80;0.80;;;;;;;;;;4966785;28;20243;-87
2022/04/15 05:01:36;;;;;;;2.37;2.07;;;;;;;;;;4983865;28;20195;-87
2022/04/15 05:04:05;;;;;;;2.67;2.43;;;;;;;;;;4983741;28;20197;-88
2022/04/15 05:06:33;;;;;;;1.93;1.83;;;;;;;;;;4966437;28;20228;-87
2022/04/15 05:09:03;;;;;;;3.63;3.40;;;;;;;;;;4967139;28;20205;-87
2022/04/15 05:11:34;;;;;;;3.47;2.47;;;;;;;;;;4966510;28;20256;-87
2022/04/15 05:14:03;;;;;;;1.77;1.73;;;;;;;;;;4966350;28;20208;-87
2022/04/15 05:16:31;;;;;;;1.87;1.77;;;;;;;;;;4965535;28;20208;-87
2022/04/15 05:19:00;;;;;;;0.70;0.70;;;;;;;;;;4966782;28;20212;-87
2022/04/15 05:21:28;;;;;;;2.63;2.00;;;;;;;;;;4983347;28;20193;-87
2022/04/15 05:23:57;;;;;;;2.50;2.30;;;;;;;;;;4982707;28;20228;-87
2022/04/15 05:26:28;;;;;;;2.10;2.03;;;;;;;;;;4965368;28;20207;-87
2022/04/15 05:28:56;;;;;;;2.23;2.13;;;;;;;;;;4965580;28;20203;-87
2022/04/15 05:31:25;;;;;;;2.37;2.20;;;;;;;;;;4960123;29;20295;-88
2022/04/15 05:33:53;;;;;;;2.00;1.90;;;;;;;;;;4962390;28;20204;-87
2022/04/15 05:36:22;;;;;;;3.20;2.90;;;;;;;;;;4962758;28;20221;-88
2022/04/15 05:38:51;;;;;;;4.60;2.13;;;;;;;;;;4931032;29;20204;-88
2022/04/15 05:41:19;;;;;;;1.10;1.10;;;;;;;;;;4962377;28;20206;-88
2022/04/15 05:43:49;;;;;;;5.33;1.90;;;;;;;;;;4961606;28;20201;-88
2022/04/15 05:46:19;;;;;;;1.67;1.57;;;;;;;;;;4961917;28;20297;-88
2022/04/15 05:48:48;;;;;;;0.93;0.93;;;;;;;;;;4960757;28;20212;-88
2022/04/15 05:51:20;;;;;;;2.53;2.10;;;;;;;;;;4944513;29;20228;-87
2022/04/15 05:53:49;;;;;;;2.03;1.93;;;;;;;;;;4958914;28;20202;-86
2022/04/15 05:56:17;;;;;;;2.27;2.10;;;;;;;;;;4947300;29;20202;-87
2022/04/15 05:58:46;;;;;;;5.07;4.53;;;;;;;;;;4965523;28;20203;-89
2022/04/15 06:01:17;;;;;;;4.67;4.27;;;;;;;;;;4964390;28;20269;-88
2022/04/15 06:03:48;;;;;;;5.03;2.40;;;;;;;;;;4960054;28;20210;-86
2022/04/15 06:06:17;;;;;;;4.83;4.37;;;;;;;;;;4941993;29;20213;-89
2022/04/15 06:08:45;;;;;;;2.50;2.30;;;;;;;;;;4958486;28;20228;-88
2022/04/15 06:11:16;;;;;;;5.70;4.47;;;;;;;;;;4957846;28;20229;-88
2022/04/15 06:13:47;;;;;;;4.63;3.43;;;;;;;;;;4970684;28;20205;-89
2022/04/15 06:16:19;;;;;;;4.03;2.10;;;;;;;;;;4952265;29;20206;-89
2022/04/15 06:18:49;;;;;;;3.43;3.23;;;;;;;;;;4968842;28;20201;-90
2022/04/15 06:21:37;;;;;;;2.43;2.23;;;;;;;;;;4952575;29;20265;-89
2022/04/15 06:24:08;;;;;;;12.33;4.50;;;;;;;;;;4952387;29;20205;-89
2022/04/15 06:26:37;;;;;;;4.90;3.37;;;;;;;;;;4949909;29;20323;-89
2022/04/15 06:29:05;;;;;;;4.13;3.83;;;;;;;;;;4949200;28;20216;-88
2022/04/15 06:31:35;;;;;;;4.17;3.77;;;;;;;;;;4956715;28;20242;-90
2022/04/15 06:34:04;;;;;;;3.53;3.10;;;;;;;;;;4972563;28;20204;-89
2022/04/15 06:36:32;;;;;;;14.30;4.00;;;;;;;;;;4971117;28;20205;-86
2022/04/15 06:39:01;;;;;;;3.77;3.17;;;;;;;;;;4968530;28;20208;-90
2022/04/15 06:41:29;;;;;;;1.90;1.80;;;;;;;;;;4967236;28;20201;-90
2022/04/15 06:43:58;;;;;;;3.03;2.80;;;;;;;;;;4969009;28;20216;-91
2022/04/15 06:46:37;;;;;;;3.23;2.93;;;;;;;;;;4969444;28;20209;-90
2022/04/15 06:52:37;;;;;;;2.80;2.60;;;;;;;;;;4972125;28;20226;-90
2022/04/15 06:58:44;;;;;;;1.37;1.27;;;;;;;;;;4979152;28;20204;-88
2022/04/15 07:05:16;;;;;;;;;;;;;;;;;;;;;
2022/04/15 07:08:23;;;;;;;2.57;2.37;;;;;;;;;;4979378;28;20213;-90
2022/04/15 07:11:30;;;;;;;1.07;1.07;;;;;;;;;;4977805;28;20305;-89
2022/04/15 07:14:18;;;;;;;5.97;3.27;;;;;;;;;;4969876;28;20229;-89
2022/04/15 07:17:21;;;;;;;2.60;2.40;;;;;;;;;;4970968;28;20219;-87
2022/04/15 07:20:40;;;;;;;2.13;2.03;;;;;;;;;;4898547;29;20211;-91
2022/04/15 07:23:24;;;;;;;4.13;3.17;;;;;;;;;;4910703;29;20207;-92
2022/04/15 07:26:11;;;;;;;1.27;1.27;;;;;;;;;;4888969;29;20215;-92
2022/04/15 07:32:19;;;;;;;1.73;1.63;;;;;;;;;;4904169;29;20353;-91
2022/04/15 07:35:12;;;;;;;2.70;2.50;;;;;;;;;;4916840;29;20275;-91
2022/04/15 07:37:50;;;;;;;2.47;2.27;;;;;;;;;;4893926;29;20267;-92
2022/04/15 07:40:48;;;;;;;;;;;;;;;;;;;;;
2022/04/15 07:43:27;;;;;;;2.97;2.73;;;;;;;;;;4929359;29;20207;-91
2022/04/15 07:46:24;;;;;;;3.80;2.93;;;;;;;;;;4912748;29;20217;-92
2022/04/15 07:49:15;;;;;;;2.40;1.90;;;;;;;;;;4895992;29;20215;-90
2022/04/15 07:52:16;;;;;;;2.57;2.37;;;;;;;;;;4895313;29;20211;-88
2022/04/15 07:55:19;;;;;;;1.53;1.43;;;;;;;;;;4878451;29;20217;-92
2022/04/15 07:58:11;;;;;;;1.73;1.43;;;;;;;;;;4881633;29;20299;-92
2022/04/15 08:01:47;;;;;;;3.60;2.40;;;;;;;;;;4866030;29;20201;-89
2022/04/15 08:12:04;;;;;;;;;;;;;;;;;;;;;
2022/04/15 08:19:02;;;;;;;;;;;;;;;;;;;;;
2022/04/15 08:32:52;;;;;;;1.70;1.60;;;;;;;;;;4813284;29;20226;-90
2022/04/15 08:36:21;;;;;;;1.77;1.67;;;;;;;;;;4850478;29;20339;-91
2022/04/15 08:39:29;;;;;;;2.37;2.17;;;;;;;;;;4921314;28;20213;-90
2022/04/15 08:49:22;;;;;;;4.23;3.43;;;;;;;;;;4904732;28;20336;-89
2022/04/15 08:52:03;;;;;;;3.50;3.20;;;;;;;;;;4952887;28;20238;-89
2022/04/15 09:04:20;;;;;;;2.37;1.83;;;;;;;;;;4967966;28;20425;-91
2022/04/15 09:07:08;;;;;;;1.37;1.30;;;;;;;;;;4956214;28;20229;-89
2022/04/15 09:10:33;;;;;;;2.17;1.93;;;;;;;;;;4946547;28;20235;-92
2022/04/15 09:14:02;;;;;;;1.50;1.40;;;;;;;;;;4905451;29;20223;-89
2022/04/15 09:16:54;;;;;;;3.57;1.97;;;;;;;;;;4917926;29;20199;-94
2022/04/15 09:20:23;;;;;;;1.37;1.37;;;;;;;;;;4920152;29;20201;-93
2022/04/15 14:11:50;;;;;;;2.30;2.17;;;;;;;;;;4975020;28;20321;-87
2022/04/15 14:14:19;;;;;;;2.23;2.03;;;;;;;;;;4973581;28;20249;-88
2022/04/15 14:16:47;;;;;;;2.20;2.10;;;;;;;;;;4978295;28;20241;-87
2022/04/15 14:19:17;;;;;;;3.83;3.10;;;;;;;;;;4976856;28;20321;-87
2022/04/15 14:21:45;;;;;;;2.37;2.27;;;;;;;;;;4977201;28;20305;-87
2022/04/15 14:24:14;;;;;;;2.63;2.43;;;;;;;;;;4977843;28;20218;-87
2022/04/15 14:26:42;;;;;;;1.50;1.37;;;;;;;;;;4978005;28;20213;-87
2022/04/15 14:29:13;;;;;;;3.47;3.13;;;;;;;;;;4977514;28;20288;-87
2022/04/15 14:31:49;;;;;;;3.13;2.67;;;;;;;;;;4977187;28;20237;-87
2022/04/15 14:34:20;;;;;;;8.57;5.23;;;;;;;;;;4976545;28;20317;-87
2022/04/15 14:36:49;;;;;;;4.90;3.80;;;;;;;;;;4976764;28;20222;-87
2022/04/15 14:39:22;;;;;;;3.83;3.50;;;;;;;;;;4976076;28;20238;-87
2022/04/15 14:41:58;;;;;;;2.87;2.67;;;;;;;;;;4976456;28;20203;-87
2022/04/15 14:44:30;;;;;;;4.70;3.73;;;;;;;;;;4976301;28;20207;-87
2022/04/15 14:47:05;;;;;;;3.47;3.17;;;;;;;;;;4992424;28;20214;-87
2022/04/15 14:49:36;;;;;;;5.03;4.43;;;;;;;;;;4976574;28;20242;-86
2022/04/15 14:52:07;;;;;;;4.80;3.60;;;;;;;;;;4976008;28;20214;-87
2022/04/15 14:54:37;;;;;;;2.80;2.60;;;;;;;;;;4975707;28;20234;-87
2022/04/15 14:57:06;;;;;;;5.87;3.40;;;;;;;;;;4976207;28;20210;-84
2022/04/15 14:59:37;;;;;;;5.63;3.60;;;;;;;;;;4992229;28;20210;-87
2022/04/15 15:02:15;;;;;;;3.60;3.30;;;;;;;;;;4992460;28;20211;-87
2022/04/15 15:04:47;;;;;;;3.23;2.50;;;;;;;;;;4975843;28;20205;-87
2022/04/15 15:07:27;;;;;;;8.23;5.00;;;;;;;;;;4956495;29;20207;-87
2022/04/15 15:09:56;;;;;;;4.30;3.63;;;;;;;;;;4956331;29;20323;-87
2022/04/15 15:12:25;;;;;;;3.60;3.23;;;;;;;;;;4956507;29;20216;-87
2022/04/15 15:14:55;;;;;;;6.13;3.60;;;;;;;;;;4972261;28;20222;-87
2022/04/15 15:17:24;;;;;;;4.97;4.47;;;;;;;;;;4972164;28;20199;-87
2022/04/15 15:19:54;;;;;;;2.13;2.03;;;;;;;;;;4956555;29;20205;-87
2022/04/15 15:22:23;;;;;;;4.73;4.00;;;;;;;;;;4956875;29;20207;-87
2022/04/15 15:30:37;;;;;;;6.07;5.43;;;;;;;;;;4956483;29;20215;-87
2022/04/15 15:33:06;;;;;;;3.70;3.40;;;;;;;;;;4938533;29;20211;-88
2022/04/15 15:35:35;;;;;;;2.93;2.57;;;;;;;;;;4937138;29;20207;-88
2022/04/15 15:38:04;;;;;;;5.60;3.90;;;;;;;;;;4937125;29;20212;-87
2022/04/15 15:40:32;;;;;;;3.13;2.83;;;;;;;;;;4936780;29;20213;-87
2022/04/15 15:43:01;;;;;;;5.47;3.93;;;;;;;;;;4936688;29;20287;-87
2022/04/15 15:45:30;;;;;;;7.57;5.33;;;;;;;;;;4936680;29;20208;-87
2022/04/15 15:48:00;;;;;;;4.07;3.30;;;;;;;;;;4936749;29;20200;-87
2022/04/15 15:50:30;;;;;;;3.63;2.77;;;;;;;;;;4937033;29;20211;-87
2022/04/15 15:52:58;;;;;;;5.33;3.40;;;;;;;;;;4936677;29;20203;-88
2022/04/15 15:55:27;;;;;;;6.53;3.43;;;;;;;;;;4936663;29;20224;-88
2022/04/15 15:57:55;;;;;;;4.10;3.70;;;;;;;;;;4936427;29;20215;-88
2022/04/15 16:00:23;;;;;;;5.63;3.50;;;;;;;;;;4936179;29;20210;-88
2022/04/15 16:02:52;;;;;;;4.60;4.20;;;;;;;;;;4936673;29;20267;-88
2022/04/15 16:05:22;;;;;;;1.57;1.47;;;;;;;;;;4936051;29;20223;-88
2022/04/15 16:07:51;;;;;;;5.80;4.07;;;;;;;;;;4937349;29;20205;-88
2022/04/15 16:10:19;;;;;;;4.00;2.80;;;;;;;;;;4936429;29;20259;-88
2022/04/15 16:12:48;;;;;;;4.63;4.00;;;;;;;;;;4936464;29;20211;-88
2022/04/15 16:15:16;;;;;;;3.37;2.83;;;;;;;;;;4935854;29;20325;-88
2022/04/15 16:17:45;;;;;;;10.10;3.87;;;;;;;;;;4936264;29;20310;-88
2022/04/15 16:20:13;;;;;;;6.77;4.77;;;;;;;;;;4936414;29;20208;-88
2022/04/15 16:22:43;;;;;;;2.20;2.10;;;;;;;;;;4936215;29;20215;-88
2022/04/15 16:25:12;;;;;;;6.27;3.47;;;;;;;;;;4936239;29;20194;-88
2022/04/15 16:27:41;;;;;;;3.30;2.97;;;;;;;;;;4936859;29;20214;-88
2022/04/15 16:30:10;;;;;;;7.70;4.07;;;;;;;;;;4936164;29;20210;-88
2022/04/15 16:32:39;;;;;;;6.03;3.03;;;;;;;;;;4936096;29;20210;-88
2022/04/15 16:35:08;;;;;;;7.53;5.10;;;;;;;;;;4951804;29;20234;-88
2022/04/15 16:37:37;;;;;;;2.73;2.13;;;;;;;;;;4935964;29;20320;-88
2022/04/15 16:40:08;;;;;;;2.77;2.37;;;;;;;;;;4936031;29;20229;-88
2022/04/15 16:42:39;;;;;;;2.63;2.43;;;;;;;;;;4935501;29;20210;-88
2022/04/15 16:45:09;;;;;;;5.57;3.70;;;;;;;;;;4935674;29;20411;-88
2022/04/15 16:47:51;;;;;;;2.97;2.70;;;;;;;;;;4935885;29;20207;-88
2022/04/15 16:50:20;;;;;;;2.63;2.23;;;;;;;;;;4935671;29;20254;-88
2022/04/15 16:52:48;;;;;;;4.77;3.53;;;;;;;;;;4935929;29;20254;-88
2022/04/15 17:00:51;;;;;;;3.00;2.80;;;;;;;;;;4935822;29;20208;-88
2022/04/15 17:03:19;;;;;;;5.13;4.03;;;;;;;;;;4935429;29;20246;-88
2022/04/15 17:05:49;;;;;;;2.10;1.93;;;;;;;;;;4935476;29;20226;-88
2022/04/15 17:08:17;;;;;;;2.80;2.60;;;;;;;;;;4935514;29;20209;-88
2022/04/15 17:10:47;;;;;;;1.77;1.60;;;;;;;;;;4935295;29;20236;-87
2022/04/15 17:13:23;;;;;;;3.97;3.43;;;;;;;;;;4935086;29;20208;-88
2022/04/15 17:15:52;;;;;;;2.80;2.60;;;;;;;;;;4935562;29;20224;-88
2022/04/15 17:18:21;;;;;;;1.97;1.73;;;;;;;;;;4935289;29;20235;-88
2022/04/15 17:20:49;;;;;;;2.30;2.17;;;;;;;;;;4935244;29;20199;-88
2022/04/15 17:23:18;;;;;;;3.53;2.27;;;;;;;;;;4935303;29;20210;-88
2022/04/15 17:25:48;;;;;;;3.90;2.90;;;;;;;;;;4935107;29;20210;-88
2022/04/15 17:28:17;;;;;;;4.27;2.10;;;;;;;;;;4935415;29;20206;-88
2022/04/15 17:30:46;;;;;;;1.63;1.53;;;;;;;;;;4935504;29;20211;-88
2022/04/15 17:33:15;;;;;;;2.17;2.00;;;;;;;;;;4935166;29;20210;-88
2022/04/15 17:35:43;;;;;;;4.70;3.23;;;;;;;;;;4935247;29;20231;-88
2022/04/15 17:38:11;;;;;;;6.70;3.33;;;;;;;;;;4936185;29;20211;-88
2022/04/15 17:40:41;;;;;;;4.47;2.83;;;;;;;;;;4935315;29;20210;-88
2022/04/15 17:43:10;;;;;;;7.43;4.47;;;;;;;;;;4935187;29;20215;-88
2022/04/15 17:45:39;;;;;;;2.37;2.17;;;;;;;;;;4936457;29;20194;-88
2022/04/15 17:48:08;;;;;;;6.53;2.87;;;;;;;;;;4935088;29;20519;-88
2022/04/15 17:50:37;;;;;;;9.23;3.80;;;;;;;;;;4937375;29;20220;-88
2022/04/15 17:53:06;;;;;;;5.17;3.83;;;;;;;;;;4939237;29;20215;-87
2022/04/15 17:55:34;;;;;;;3.53;3.00;;;;;;;;;;4938700;29;20230;-88
2022/04/15 17:58:06;;;;;;;4.27;3.30;;;;;;;;;;4939692;29;20205;-88
2022/04/15 18:00:36;;;;;;;4.10;3.10;;;;;;;;;;4938671;29;20206;-88
2022/04/15 18:03:04;;;;;;;3.57;3.23;;;;;;;;;;4938607;29;20339;-87
2022/04/15 18:05:33;;;;;;;3.13;2.67;;;;;;;;;;4938652;29;20242;-87
2022/04/15 18:08:02;;;;;;;3.33;3.00;;;;;;;;;;4938725;29;20210;-87
2022/04/15 18:10:31;;;;;;;8.07;4.07;;;;;;;;;;4938332;29;20301;-87
2022/04/15 18:12:59;;;;;;;3.83;3.43;;;;;;;;;;4938867;29;20294;-87
2022/04/15 18:15:28;;;;;;;4.40;4.00;;;;;;;;;;4938393;29;20236;-87
2022/04/15 18:17:58;;;;;;;3.33;3.03;;;;;;;;;;4938432;29;20217;-88
2022/04/15 18:20:26;;;;;;;12.40;4.30;;;;;;;;;;4938293;29;20257;-87
2022/04/15 18:22:55;;;;;;;5.53;4.27;;;;;;;;;;4938593;29;20199;-88
2022/04/15 18:25:24;;;;;;;4.07;3.47;;;;;;;;;;4938552;29;20209;-87
2022/04/15 18:27:52;;;;;;;6.87;6.17;;;;;;;;;;4938277;29;20210;-87
2022/04/15 18:30:22;;;;;;;6.03;4.97;;;;;;;;;;4951977;29;20206;-87
2022/04/15 18:32:50;;;;;;;6.37;4.80;;;;;;;;;;4953321;29;20351;-88
2022/04/15 18:35:21;;;;;;;5.70;5.17;;;;;;;;;;4956940;29;20225;-88
2022/04/15 18:37:50;;;;;;;10.40;4.60;;;;;;;;;;4957218;29;20202;-88
2022/04/15 18:40:18;;;;;;;4.20;3.77;;;;;;;;;;4956997;29;20209;-88
2022/04/15 18:42:47;;;;;;;7.00;3.90;;;;;;;;;;4957140;29;20209;-88
2022/04/15 18:45:16;;;;;;;5.97;4.63;;;;;;;;;;4973257;28;20209;-88
2022/04/15 18:47:45;;;;;;;6.97;4.73;;;;;;;;;;4956815;29;20213;-87
2022/04/15 18:53:16;;;;;;;4.37;3.97;;;;;;;;;;4920662;29;20281;-88
2022/04/15 18:55:44;;;;;;;7.40;4.37;;;;;;;;;;4936781;29;20215;-87
2022/04/15 18:58:13;;;;;;;7.87;5.97;;;;;;;;;;4935620;29;20206;-88
2022/04/15 19:00:41;;;;;;;5.13;3.43;;;;;;;;;;4956795;28;20202;-87
2022/04/15 19:03:11;;;;;;;4.53;4.10;;;;;;;;;;4956634;29;20228;-88
2022/04/15 19:05:39;;;;;;;6.70;4.37;;;;;;;;;;4956663;29;20324;-88
2022/04/15 19:08:09;;;;;;;5.53;4.90;;;;;;;;;;4956625;29;20213;-88
2022/04/15 19:10:40;;;;;;;6.27;4.50;;;;;;;;;;4956300;29;20237;-87
2022/04/15 19:13:09;;;;;;;8.07;5.63;;;;;;;;;;4956724;29;20209;-88
2022/04/15 19:15:37;;;;;;;5.40;4.30;;;;;;;;;;4956622;29;20489;-88
2022/04/15 19:18:06;;;;;;;7.53;4.77;;;;;;;;;;4956739;29;20208;-88
2022/04/15 19:20:35;;;;;;;4.67;4.07;;;;;;;;;;4956514;29;20308;-87
2022/04/15 19:23:03;;;;;;;6.83;4.23;;;;;;;;;;4956659;29;20300;-88
2022/04/15 19:25:34;;;;;;;5.50;4.47;;;;;;;;;;4956411;29;20217;-87
2022/04/15 19:28:04;;;;;;;5.70;4.30;;;;;;;;;;4956510;29;20273;-87
2022/04/15 19:30:32;;;;;;;10.87;6.50;;;;;;;;;;4956461;29;20224;-88
2022/04/15 19:33:01;;;;;;;4.57;4.03;;;;;;;;;;4955080;28;20206;-87
2022/04/15 19:35:29;;;;;;;4.67;3.27;;;;;;;;;;4937199;29;20277;-87
2022/04/15 19:37:58;;;;;;;2.83;2.30;;;;;;;;;;4937256;29;20211;-87
2022/04/15 19:40:26;;;;;;;5.20;3.80;;;;;;;;;;4937027;29;20221;-87
2022/04/15 19:42:55;;;;;;;4.10;3.27;;;;;;;;;;4937292;29;20212;-87
2022/04/15 19:45:25;;;;;;;5.10;4.33;;;;;;;;;;4936797;29;20293;-88
2022/04/15 19:47:53;;;;;;;6.03;5.27;;;;;;;;;;4936768;29;20258;-88
2022/04/15 19:50:22;;;;;;;6.97;4.53;;;;;;;;;;4937021;29;20207;-87
2022/04/15 19:52:53;;;;;;;5.83;4.70;;;;;;;;;;4936752;29;20213;-87
2022/04/15 19:55:21;;;;;;;4.57;3.77;;;;;;;;;;4936797;29;20206;-88
2022/04/15 20:01:08;;;;;;;1.70;1.60;;;;;;;;;;4936774;29;20202;-87
2022/04/15 20:03:38;;;;;;;4.10;3.70;;;;;;;;;;4936778;29;20295;-88
2022/04/15 20:06:07;;;;;;;3.33;3.03;;;;;;;;;;4936323;29;20225;-87
2022/04/15 20:08:37;;;;;;;6.03;5.47;;;;;;;;;;4936641;29;20232;-87
2022/04/15 20:11:08;;;;;;;3.50;2.17;;;;;;;;;;4936373;29;20331;-88
2022/04/15 20:13:37;;;;;;;5.27;4.83;;;;;;;;;;4935603;29;20208;-87
2022/04/15 20:16:08;;;;;;;3.77;3.47;;;;;;;;;;4936346;29;20234;-87
2022/04/15 20:18:37;;;;;;;3.93;3.37;;;;;;;;;;4936455;29;20229;-88
2022/04/15 20:21:05;;;;;;;3.63;2.97;;;;;;;;;;4936140;29;20202;-88
2022/04/15 20:23:34;;;;;;;4.33;3.93;;;;;;;;;;4937288;29;20210;-87
2022/04/15 20:26:02;;;;;;;4.60;4.10;;;;;;;;;;4936029;29;20202;-87
2022/04/15 20:28:32;;;;;;;4.93;4.47;;;;;;;;;;4936116;29;20209;-88
2022/04/15 20:31:03;;;;;;;5.23;4.73;;;;;;;;;;4937456;29;20529;-87
2022/04/15 20:33:33;;;;;;;5.30;4.80;;;;;;;;;;4955399;29;20264;-87
2022/04/15 20:36:01;;;;;;;8.90;4.63;;;;;;;;;;4956255;28;20248;-87
2022/04/15 20:38:30;;;;;;;3.00;2.80;;;;;;;;;;4954919;29;20206;-87
2022/04/15 20:40:58;;;;;;;3.20;2.67;;;;;;;;;;4954695;29;20201;-87
2022/04/15 20:43:27;;;;;;;3.63;3.33;;;;;;;;;;4954909;29;20213;-87
2022/04/15 20:45:55;;;;;;;3.20;2.90;;;;;;;;;;4955130;29;20210;-88
2022/04/15 20:51:12;;;;;;;4.33;3.97;;;;;;;;;;4954803;29;20204;-87
2022/04/15 20:53:40;;;;;;;5.43;4.73;;;;;;;;;;4954746;29;20214;-87
2022/04/15 20:56:09;;;;;;;3.90;2.50;;;;;;;;;;4954820;29;20249;-87
2022/04/15 20:58:38;;;;;;;6.93;6.33;;;;;;;;;;4956136;28;20206;-87
2022/04/15 21:01:06;;;;;;;6.20;4.37;;;;;;;;;;4954653;29;20305;-88
2022/04/15 21:03:35;;;;;;;6.80;5.40;;;;;;;;;;4954667;29;20362;-88
2022/04/15 21:06:03;;;;;;;2.60;2.40;;;;;;;;;;4954674;29;20260;-88
2022/04/15 21:08:33;;;;;;;6.50;5.13;;;;;;;;;;4954590;29;20200;-87
2022/04/15 21:11:01;;;;;;;4.07;3.67;;;;;;;;;;4954238;29;20238;-88
2022/04/15 21:13:32;;;;;;;2.70;2.57;;;;;;;;;;4954344;29;20204;-88
2022/04/15 21:16:01;;;;;;;8.37;5.87;;;;;;;;;;4955455;28;20210;-88